createdAt,value
2018-05-12T00:01:22.550Z,18.93
2018-05-12T00:05:25.040Z,19.10
2018-05-12T00:09:27.530Z,18.93
2018-05-12T00:13:30.018Z,20.60
2018-05-12T00:17:32.503Z,20.67
2018-05-12T00:21:35.004Z,20.37
2018-05-12T00:25:37.503Z,22.90
2018-05-12T00:29:39.989Z,23.33
2018-05-12T00:33:42.475Z,21.60
2018-05-12T00:37:44.957Z,21.53
2018-05-12T00:46:28.687Z,21.60
2018-05-12T00:50:31.437Z,20.20
2018-05-12T00:54:34.236Z,22.80
2018-05-12T00:58:37.047Z,21.60
2018-05-12T01:02:39.771Z,21.07
2018-05-12T01:06:42.447Z,23.07
2018-05-12T01:38:41.488Z,23.67
2018-05-12T01:42:44.093Z,23.23
2018-05-12T01:46:46.750Z,23.90
2018-05-12T01:50:51.467Z,21.73
2018-05-12T01:54:54.746Z,20.80
2018-05-12T01:58:58.116Z,19.30
2018-05-12T02:03:00.685Z,17.83
2018-05-12T02:07:03.323Z,19.07
2018-05-12T02:11:06.028Z,17.73
2018-05-12T02:15:08.804Z,17.80
2018-05-12T02:19:11.440Z,18.57
2018-05-12T02:23:14.146Z,18.13
2018-05-12T02:27:16.774Z,16.07
2018-05-12T02:31:19.447Z,18.93
2018-05-12T02:35:22.085Z,18.40
2018-05-12T02:39:24.741Z,18.57
2018-05-12T02:43:27.394Z,18.63
2018-05-12T02:47:30.059Z,18.23
2018-05-12T02:51:32.769Z,18.13
2018-05-12T02:55:35.470Z,18.37
2018-05-12T03:18:16.092Z,17.80
2018-05-12T03:22:18.700Z,17.17
2018-05-12T03:26:21.563Z,17.30
2018-05-12T04:39:53.188Z,20.57
2018-05-12T04:43:55.884Z,19.30
2018-05-12T04:47:58.386Z,18.73
2018-05-12T04:52:01.183Z,18.40
2018-05-12T04:56:03.892Z,19.13
2018-05-12T05:00:06.670Z,18.97
2018-05-12T05:04:09.430Z,20.03
2018-05-12T05:12:53.424Z,19.80
2018-05-12T05:16:56.186Z,17.83
2018-05-12T05:20:58.894Z,17.63
2018-05-12T05:25:01.615Z,17.47
2018-05-12T05:29:04.522Z,17.50
2018-05-12T05:33:07.253Z,17.70
2018-05-12T05:37:10.028Z,18.30
2018-05-12T05:41:12.698Z,17.20
2018-05-12T05:45:15.375Z,16.83
2018-05-12T05:49:18.254Z,17.03
2018-05-12T05:53:21.063Z,17.23
2018-05-12T05:57:23.764Z,17.43
2018-05-12T06:01:26.401Z,16.47
2018-05-12T06:05:29.099Z,16.30
2018-05-12T06:14:09.983Z,15.07
2018-05-12T06:18:12.596Z,17.77
2018-05-12T06:22:15.079Z,16.83
2018-05-12T06:26:17.633Z,16.30
2018-05-12T06:30:21.344Z,17.77
2018-05-12T06:34:23.971Z,17.20
2018-05-12T06:38:26.774Z,15.83
2018-05-12T06:42:29.546Z,16.53
2018-05-12T06:46:32.185Z,15.90
2018-05-12T06:50:39.897Z,17.80
2018-05-12T06:54:42.555Z,17.57
2018-05-12T06:58:45.216Z,16.07
2018-05-12T07:02:47.932Z,15.63
2018-05-12T07:06:50.427Z,17.27
2018-05-12T07:10:58.371Z,17.87
2018-05-12T07:15:00.968Z,16.87
2018-05-12T07:19:03.597Z,17.07
2018-05-12T07:23:06.188Z,17.90
2018-05-12T07:27:08.784Z,16.70
2018-05-12T07:31:11.431Z,16.03
2018-05-12T07:35:14.251Z,15.63
2018-05-12T07:39:17.605Z,15.63
2018-05-12T07:43:20.200Z,14.37
2018-05-12T07:47:22.899Z,17.00
2018-05-12T07:51:25.671Z,16.20
2018-05-12T07:55:28.408Z,15.87
2018-05-12T07:59:30.926Z,14.87
2018-05-12T08:03:33.571Z,15.93
2018-05-12T08:07:36.144Z,15.77
2018-05-12T08:11:38.731Z,16.70
2018-05-12T08:15:41.341Z,16.85
2018-05-12T08:19:44.774Z,15.43
2018-05-12T08:23:47.386Z,14.38
2018-05-12T08:27:49.903Z,15.45
2018-05-12T08:31:52.455Z,15.10
2018-05-12T08:35:55.016Z,14.63
2018-05-12T08:39:57.604Z,15.43
2018-05-12T08:44:00.177Z,17.87
2018-05-12T08:48:02.702Z,15.55
2018-05-12T08:52:05.200Z,21.27
2018-05-12T08:56:07.759Z,18.08
2018-05-12T09:00:11.297Z,14.32
2018-05-12T09:04:13.839Z,19.33
2018-05-12T09:08:16.392Z,14.48
2018-05-12T09:12:18.927Z,15.25
2018-05-12T09:16:21.466Z,12.55
2018-05-12T09:20:23.996Z,13.62
2018-05-12T09:24:27.442Z,15.30
2018-05-12T09:28:30.075Z,15.43
2018-05-12T09:32:32.564Z,12.75
2018-05-12T09:36:35.108Z,12.82
2018-05-12T09:40:37.645Z,13.55
2018-05-12T09:44:40.176Z,13.68
2018-05-12T09:48:49.658Z,13.07
2018-05-12T09:52:52.182Z,14.52
2018-05-12T09:56:54.728Z,16.17
2018-05-12T10:00:57.267Z,14.40
2018-05-12T10:09:08.598Z,11.75
2018-05-12T10:13:11.107Z,9.25
2018-05-12T10:17:13.632Z,8.77
2018-05-12T10:21:16.140Z,8.57
2018-05-12T10:25:18.655Z,9.38
2018-05-12T10:29:21.180Z,8.45
2018-05-12T10:33:23.656Z,9.40
2018-05-12T10:37:26.171Z,11.50
2018-05-12T10:41:28.645Z,9.60
2018-05-12T10:45:31.149Z,10.45
2018-05-12T10:49:33.649Z,9.68
2018-05-12T10:53:36.153Z,9.70
2018-05-12T10:57:38.660Z,11.57
2018-05-12T11:01:41.128Z,9.57
2018-05-12T11:05:43.656Z,10.55
2018-05-12T11:09:49.152Z,12.05
2018-05-12T11:13:51.701Z,10.20
2018-05-12T11:17:54.203Z,10.35
2018-05-12T11:21:56.798Z,9.60
2018-05-12T11:25:59.194Z,10.95
2018-05-12T11:30:01.690Z,11.68
2018-05-12T11:34:04.176Z,9.07
2018-05-12T11:38:06.660Z,8.27
2018-05-12T11:42:09.165Z,9.73
2018-05-12T11:46:11.621Z,8.18
2018-05-12T11:50:14.092Z,9.32
2018-05-12T11:54:16.576Z,8.70
2018-05-12T11:58:19.158Z,9.85
2018-05-12T12:02:21.557Z,8.65
2018-05-12T12:06:24.051Z,9.32
2018-05-12T12:10:26.518Z,9.80
2018-05-12T12:14:29.008Z,8.57
2018-05-12T12:18:31.485Z,11.30
2018-05-12T12:22:33.993Z,8.35
2018-05-12T12:26:36.511Z,9.32
2018-05-12T12:30:39.019Z,8.82
2018-05-12T12:34:41.524Z,8.52
2018-05-12T12:38:44.006Z,9.85
2018-05-12T12:42:46.476Z,9.38
2018-05-12T12:46:48.960Z,9.80
2018-05-12T12:50:51.448Z,8.70
2018-05-12T12:54:53.939Z,9.13
2018-05-12T12:58:56.440Z,11.68
2018-05-12T13:02:58.915Z,8.85
2018-05-12T13:07:01.433Z,7.53
2018-05-12T13:11:03.918Z,7.68
2018-05-12T13:15:06.403Z,7.00
2018-05-12T13:19:08.900Z,7.93
2018-05-12T13:23:11.388Z,7.93
2018-05-12T13:27:13.886Z,7.15
2018-05-12T13:31:16.388Z,8.18
2018-05-12T13:35:18.840Z,7.10
2018-05-12T13:39:21.321Z,8.18
2018-05-12T13:43:23.809Z,8.02
2018-05-12T13:47:26.266Z,8.05
2018-05-12T13:51:28.743Z,7.15
2018-05-12T13:55:31.229Z,6.80
2018-05-12T13:59:33.708Z,8.48
2018-05-12T14:03:36.200Z,8.10
2018-05-12T14:07:38.676Z,7.22
2018-05-12T14:11:41.159Z,7.07
2018-05-12T14:15:43.636Z,7.87
2018-05-12T14:19:46.117Z,7.03
2018-05-12T14:23:48.614Z,8.43
2018-05-12T14:27:51.072Z,10.05
2018-05-12T14:31:53.555Z,10.63
2018-05-12T14:35:56.037Z,9.27
2018-05-12T14:39:58.500Z,8.80
2018-05-12T14:44:00.982Z,7.80
2018-05-12T14:48:03.472Z,11.95
2018-05-12T14:52:05.957Z,8.68
2018-05-12T14:56:08.413Z,8.57
2018-05-12T15:00:10.904Z,8.55
2018-05-12T15:04:13.380Z,8.38
2018-05-12T15:08:15.904Z,9.65
2018-05-12T15:12:18.367Z,10.75
2018-05-12T15:16:20.867Z,9.77
2018-05-12T15:20:47.405Z,9.25
2018-05-12T15:24:49.919Z,11.40
2018-05-12T15:28:52.447Z,13.60
2018-05-12T15:32:54.937Z,13.80
2018-05-12T15:36:57.442Z,15.20
2018-05-12T15:40:59.905Z,16.58
2018-05-12T15:45:02.516Z,16.98
2018-05-12T15:49:05.004Z,14.85
2018-05-12T15:53:07.476Z,19.70
2018-05-12T15:57:09.960Z,17.37
2018-05-12T16:01:12.451Z,20.15
2018-05-12T16:05:14.914Z,25.83
2018-05-12T16:09:17.407Z,26.63
2018-05-12T16:13:19.892Z,13.70
2018-05-12T16:17:22.383Z,14.40
2018-05-12T16:21:24.841Z,11.03
2018-05-12T16:25:27.326Z,9.03
2018-05-12T16:29:29.789Z,11.10
2018-05-12T16:33:32.273Z,10.97
2018-05-12T16:37:34.768Z,10.90
2018-05-12T16:41:37.222Z,11.00
2018-05-12T16:45:39.711Z,12.13
2018-05-12T16:49:42.195Z,11.70
2018-05-12T16:53:44.706Z,9.67
2018-05-12T16:57:47.158Z,10.50
2018-05-12T17:01:49.664Z,9.50
2018-05-12T17:05:52.115Z,9.10
2018-05-12T17:09:54.602Z,9.37
2018-05-12T17:13:57.095Z,9.10
2018-05-12T17:17:59.567Z,12.53
2018-05-12T17:22:02.050Z,9.97
2018-05-12T17:26:04.541Z,9.90
2018-05-12T17:30:07.051Z,11.00
2018-05-12T17:34:09.515Z,9.60
2018-05-12T17:38:12.002Z,10.70
2018-05-12T17:42:14.489Z,10.30
2018-05-12T17:46:16.986Z,10.90
2018-05-12T17:50:19.442Z,10.90
2018-05-12T17:54:21.928Z,12.57
2018-05-12T17:58:24.410Z,9.97
2018-05-12T18:02:26.882Z,10.20
2018-05-12T18:06:29.336Z,10.73
2018-05-12T18:10:31.830Z,10.13
2018-05-12T18:14:34.331Z,13.17
2018-05-12T18:18:36.780Z,8.87
2018-05-12T18:22:39.259Z,11.40
2018-05-12T18:26:41.748Z,10.53
2018-05-12T18:30:44.216Z,11.23
2018-05-12T18:34:46.709Z,10.30
2018-05-12T18:38:49.189Z,10.33
2018-05-12T18:42:51.651Z,11.13
2018-05-12T18:46:54.149Z,11.27
2018-05-12T18:50:56.608Z,10.93
2018-05-12T18:54:59.087Z,10.50
2018-05-12T18:59:01.612Z,11.40
2018-05-12T19:03:04.090Z,12.93
2018-05-12T19:07:06.583Z,14.37
2018-05-12T19:11:09.084Z,12.80
2018-05-12T19:15:11.561Z,15.30
2018-05-12T19:19:14.063Z,17.23
2018-05-12T19:23:16.521Z,13.70
2018-05-12T19:27:19.286Z,13.63
2018-05-12T19:31:21.800Z,15.53
2018-05-12T19:35:24.264Z,14.27
2018-05-12T19:39:26.750Z,13.37
2018-05-12T19:43:29.240Z,15.33
2018-05-12T19:47:31.694Z,14.03
2018-05-12T19:51:34.208Z,14.47
2018-05-12T19:55:36.672Z,15.00
2018-05-12T19:59:39.183Z,14.83
2018-05-12T20:03:41.717Z,15.60
2018-05-12T20:07:45.482Z,14.63
2018-05-12T20:11:47.971Z,17.17
2018-05-12T20:15:50.452Z,17.50
2018-05-12T20:19:52.913Z,16.63
2018-05-12T20:23:55.404Z,15.23
2018-05-12T20:27:57.892Z,16.20
2018-05-12T20:32:00.404Z,16.10
2018-05-12T20:36:02.945Z,14.43
2018-05-12T20:40:05.440Z,12.40
2018-05-12T20:44:07.923Z,13.00
2018-05-12T20:48:10.413Z,13.33
2018-05-12T20:52:12.930Z,12.73
2018-05-12T20:56:15.435Z,12.87
2018-05-12T21:00:17.894Z,13.80
2018-05-12T21:04:20.374Z,15.53
2018-05-12T21:08:22.862Z,13.23
2018-05-12T21:12:25.347Z,13.87
2018-05-12T21:16:27.832Z,12.43
2018-05-12T21:20:30.422Z,11.73
2018-05-12T21:24:32.879Z,12.70
2018-05-12T21:28:35.364Z,12.53
2018-05-12T21:32:37.846Z,13.47
2018-05-12T21:36:40.300Z,12.97
2018-05-12T21:40:42.790Z,12.67
2018-05-12T21:44:45.286Z,13.60
2018-05-12T21:48:47.743Z,14.30
2018-05-12T21:52:50.228Z,14.90
2018-05-12T21:56:52.698Z,14.37
2018-05-12T22:00:56.246Z,14.67
2018-05-12T22:04:58.755Z,12.93
2018-05-12T22:09:01.219Z,12.60
2018-05-12T22:13:03.705Z,12.67
2018-05-12T22:17:06.209Z,12.53
2018-05-12T22:21:08.679Z,11.33
2018-05-12T22:25:11.177Z,12.50
2018-05-12T22:29:13.646Z,12.57
2018-05-12T22:33:16.150Z,11.87
2018-05-12T22:37:18.637Z,12.70
2018-05-12T22:41:21.128Z,11.73
2018-05-12T22:45:23.591Z,14.67
2018-05-12T22:49:27.043Z,12.37
2018-05-12T22:53:29.507Z,12.23
2018-05-12T22:57:32.018Z,13.73
2018-05-12T23:01:34.488Z,12.50
2018-05-12T23:05:36.991Z,14.50
2018-05-12T23:09:39.474Z,13.20
2018-05-12T23:13:41.962Z,13.40
2018-05-12T23:17:44.651Z,14.80
2018-05-12T23:21:47.144Z,14.33
2018-05-12T23:25:49.612Z,14.27
2018-05-12T23:29:52.103Z,13.60
2018-05-12T23:33:54.607Z,12.47
2018-05-12T23:37:57.098Z,11.93
2018-05-12T23:41:59.595Z,11.90
2018-05-12T23:46:02.098Z,11.63
2018-05-12T23:50:04.580Z,10.83
2018-05-12T23:54:07.083Z,12.50
2018-05-12T23:58:09.608Z,11.93
